createdAt,value
2023-04-12T00:04:34.416Z,1002.3
2023-04-12T00:09:40.629Z,1002.3
2023-04-12T00:14:47.104Z,1002.1
2023-04-12T00:19:53.519Z,1002.0
2023-04-12T00:24:59.877Z,1001.9
2023-04-12T00:30:30.305Z,1001.8
2023-04-12T00:35:36.813Z,1001.8
2023-04-12T00:41:31.193Z,1001.7
2023-04-12T00:45:45.491Z,1001.4
2023-04-12T00:50:33.962Z,1001.5
2023-04-12T00:55:40.376Z,1001.3
2023-04-12T01:01:06.832Z,1001.3
2023-04-12T01:05:53.130Z,1001.2
2023-04-12T01:10:59.529Z,1001.1
2023-04-12T01:16:05.921Z,1001.0
2023-04-12T01:21:12.472Z,1000.9
2023-04-12T01:26:19.115Z,1000.9
2023-04-12T01:31:25.439Z,1000.6
2023-04-12T01:36:31.809Z,1000.6
2023-04-12T01:41:38.201Z,1000.5
2023-04-12T01:46:44.568Z,1000.5
2023-04-12T01:52:14.994Z,1000.4
2023-04-12T01:57:01.005Z,1000.3
2023-04-12T02:02:11.466Z,1000.2
2023-04-12T02:07:37.788Z,1000.2
2023-04-12T02:12:20.180Z,1000.0
2023-04-12T02:17:26.619Z,999.9
2023-04-12T02:23:10.057Z,999.7
2023-04-12T02:27:38.487Z,999.6
2023-04-12T02:32:35.861Z,999.4
2023-04-12T02:38:16.287Z,999.4
2023-04-12T02:43:18.688Z,999.2
2023-04-12T02:49:01.124Z,999.2
2023-04-12T02:54:07.567Z,999.1
2023-04-12T03:03:25.102Z,998.8
2023-04-12T03:08:32.227Z,998.7
2023-04-12T03:13:28.584Z,998.6
2023-04-12T03:18:45.006Z,998.6
2023-04-12T03:25:23.554Z,998.4
2023-04-12T03:28:57.726Z,997.9
2023-04-12T03:34:48.379Z,997.9
2023-04-12T03:39:00.581Z,997.7
2023-04-12T03:44:16.974Z,997.5
2023-04-12T03:49:43.377Z,997.5
2023-04-12T03:54:29.748Z,997.5
2023-04-12T03:59:36.094Z,997.3
2023-04-12T04:04:32.565Z,997.3
2023-04-12T04:10:13.083Z,997.1
2023-04-12T04:14:55.393Z,996.9
2023-04-12T04:20:01.806Z,996.9
2023-04-12T04:25:32.310Z,996.8
2023-04-12T04:30:14.550Z,996.7
2023-04-12T04:35:20.946Z,996.6
2023-04-12T04:40:27.281Z,996.5
2023-04-12T04:45:57.763Z,996.4
2023-04-12T04:51:00.095Z,996.4
2023-04-12T04:55:46.440Z,996.4
2023-04-12T05:00:52.830Z,996.4
2023-04-12T05:06:23.378Z,996.3
2023-04-12T05:11:05.644Z,996.3
2023-04-12T05:16:32.212Z,996.1
2023-04-12T05:21:18.521Z,996.0
2023-04-12T05:26:44.947Z,995.9
2023-04-12T05:32:51.447Z,996.0
2023-04-12T05:36:37.673Z,995.9
2023-04-12T05:43:00.434Z,995.9
2023-04-12T05:47:06.610Z,995.8
2023-04-12T05:51:59.034Z,995.7
2023-04-12T05:57:45.457Z,995.7
2023-04-12T06:02:55.907Z,995.5
2023-04-12T06:08:02.224Z,995.5
2023-04-12T06:12:48.598Z,995.5
2023-04-12T06:17:30.932Z,995.4
2023-04-12T06:22:37.413Z,995.3
2023-04-12T06:27:44.787Z,995.2
2023-04-12T06:33:11.320Z,995.0
2023-04-12T06:37:57.722Z,995.0
2023-04-12T06:43:24.106Z,994.9
2023-04-12T06:48:30.459Z,994.8
2023-04-12T06:53:16.842Z,994.7
2023-04-12T06:58:43.224Z,994.7
2023-04-12T07:03:19.653Z,994.5
2023-04-12T07:08:28.676Z,994.5
2023-04-12T07:14:06.869Z,994.5
2023-04-12T07:18:49.028Z,994.4
2023-04-12T07:23:55.538Z,994.3
2023-04-12T07:29:01.924Z,994.3
2023-04-12T07:34:08.402Z,994.2
2023-04-12T07:39:14.732Z,994.2
2023-04-12T07:44:21.192Z,994.2
2023-04-12T07:49:27.573Z,994.1
2023-04-12T07:54:34.070Z,994.1
2023-04-12T07:59:43.373Z,994.0
2023-04-12T08:05:13.886Z,994.0
2023-04-12T08:09:56.234Z,993.9
2023-04-12T08:14:52.525Z,993.9
2023-04-12T08:20:08.953Z,993.7
2023-04-12T08:25:15.356Z,993.8
2023-04-12T08:30:21.770Z,993.7
2023-04-12T08:35:48.190Z,993.7
2023-04-12T08:40:34.515Z,993.7
2023-04-12T08:45:40.964Z,993.6
2023-04-12T08:50:50.813Z,993.5
2023-04-12T08:55:57.364Z,993.5
2023-04-12T09:01:28.933Z,993.6
2023-04-12T09:06:11.248Z,993.4
2023-04-12T09:11:17.795Z,993.5
2023-04-12T09:16:24.068Z,993.5
2023-04-12T09:21:30.413Z,993.5
2023-04-12T09:27:21.041Z,993.5
2023-04-12T09:32:02.538Z,993.5
2023-04-12T09:36:39.652Z,993.4
2023-04-12T09:42:32.401Z,993.4
2023-04-12T09:47:02.411Z,993.3
2023-04-12T09:52:12.320Z,993.3
2023-04-12T09:57:38.735Z,993.4
2023-04-12T10:02:25.372Z,993.3
2023-04-12T10:07:31.517Z,993.2
2023-04-12T10:12:37.890Z,993.2
2023-04-12T10:18:28.441Z,993.2
2023-04-12T10:22:50.688Z,993.2
2023-04-12T10:27:57.072Z,993.1
2023-04-12T10:33:03.885Z,993.1
2023-04-12T10:38:10.312Z,993.1
2023-04-12T10:43:16.686Z,993.0
2023-04-12T10:48:23.130Z,993.0
2023-04-12T10:53:19.757Z,993.2
2023-04-12T10:58:36.122Z,993.3
2023-04-12T11:03:42.742Z,993.2
2023-04-12T11:08:50.169Z,993.1
2023-04-12T11:13:56.512Z,993.2
2023-04-12T11:19:26.994Z,993.1
2023-04-12T11:24:09.436Z,993.1
2023-04-12T11:29:14.675Z,993.1
2023-04-12T11:34:15.406Z,993.0
2023-04-12T11:39:30.558Z,992.9
2023-04-12T11:45:02.383Z,992.9
2023-04-12T11:50:05.242Z,992.8
2023-04-12T11:54:47.617Z,992.9
2023-04-12T11:59:53.975Z,992.8
2023-04-12T12:05:00.506Z,992.8
2023-04-12T12:10:06.784Z,992.9
2023-04-12T12:15:13.259Z,992.8
2023-04-12T12:20:19.656Z,992.8
2023-04-12T12:25:26.059Z,992.7
2023-04-12T12:30:32.410Z,993.0
2023-04-12T12:35:38.841Z,993.0
2023-04-12T12:40:45.229Z,993.1
2023-04-12T12:45:52.791Z,993.2
2023-04-12T12:51:02.729Z,993.1
2023-04-12T12:56:09.133Z,992.8
2023-04-12T13:01:15.505Z,992.7
2023-04-12T13:06:21.896Z,992.4
2023-04-12T13:11:28.289Z,993.0
2023-04-12T13:16:34.665Z,992.9
2023-04-12T13:22:01.089Z,993.1
2023-04-12T13:26:47.560Z,992.8
2023-04-12T13:31:54.024Z,992.9
2023-04-12T13:37:00.314Z,991.9
2023-04-12T13:42:45.353Z,992.0
2023-04-12T13:47:13.632Z,991.8
2023-04-12T13:52:20.116Z,991.5
2023-04-12T13:57:28.607Z,991.6
2023-04-12T14:03:19.110Z,991.9
2023-04-12T14:07:41.375Z,992.0
2023-04-12T14:12:47.771Z,992.4
2023-04-12T14:17:54.241Z,992.6
2023-04-12T14:23:00.598Z,992.7
2023-04-12T14:28:07.015Z,992.8
2023-04-12T14:33:14.564Z,992.8
2023-04-12T14:38:20.947Z,992.8
2023-04-12T14:43:27.296Z,992.8
2023-04-12T14:48:33.674Z,992.8
2023-04-12T14:53:40.075Z,992.7
2023-04-12T14:58:46.586Z,992.8
2023-04-12T15:03:53.407Z,993.0
2023-04-12T15:08:59.592Z,993.1
2023-04-12T15:14:05.810Z,993.1
2023-04-12T15:19:19.172Z,993.2
2023-04-12T15:24:18.613Z,993.4
2023-04-12T15:29:24.961Z,993.3
2023-04-12T15:34:31.339Z,993.3
2023-04-12T15:39:37.869Z,993.4
2023-04-12T15:44:44.226Z,993.4
2023-04-12T15:50:14.670Z,993.5
2023-04-12T15:54:46.990Z,993.8
2023-04-12T16:00:03.481Z,993.8
2023-04-12T16:05:09.988Z,993.8
2023-04-12T16:10:06.481Z,993.9
2023-04-12T16:15:22.879Z,994.1
2023-04-12T16:20:19.235Z,993.9
2023-04-12T16:25:35.636Z,994.0
2023-04-12T16:30:42.036Z,993.9
2023-04-12T16:35:48.397Z,994.0
2023-04-12T16:40:54.997Z,993.9
2023-04-12T16:46:25.460Z,993.9
2023-04-12T16:51:45.822Z,993.8
2023-04-12T16:56:38.231Z,993.9
2023-04-12T17:01:20.520Z,993.9
2023-04-12T17:06:26.913Z,993.8
2023-04-12T17:11:33.400Z,994.0
2023-04-12T17:16:42.073Z,994.1
2023-04-12T17:21:48.317Z,994.0
2023-04-12T17:26:44.717Z,993.9
2023-04-12T17:32:35.246Z,993.4
2023-04-12T17:38:02.574Z,993.4
2023-04-12T17:42:48.961Z,993.4
2023-04-12T17:48:33.448Z,993.3
2023-04-12T17:53:01.849Z,993.4
2023-04-12T17:58:08.229Z,993.6
2023-04-12T18:03:14.769Z,993.6
2023-04-12T18:09:05.234Z,993.7
2023-04-12T18:13:27.515Z,993.8
2023-04-12T18:18:33.971Z,993.9
2023-04-12T18:24:00.515Z,994.0
2023-04-12T18:28:47.041Z,994.0
2023-04-12T18:34:17.293Z,994.0
2023-04-12T18:38:49.617Z,994.1
2023-04-12T18:44:26.073Z,994.2
2023-04-12T18:49:16.408Z,994.1
2023-04-12T18:55:30.893Z,994.2
2023-04-12T18:59:25.239Z,994.2
2023-04-12T19:04:31.604Z,994.2
2023-04-12T19:09:37.960Z,994.3
2023-04-12T19:15:04.362Z,994.3
2023-04-12T19:20:04.754Z,994.4
2023-04-12T19:24:57.073Z,994.5
2023-04-12T19:30:05.739Z,994.4
2023-04-12T19:35:12.108Z,994.4
2023-04-12T19:40:42.518Z,994.4
2023-04-12T19:46:09.017Z,994.4
2023-04-12T19:50:55.316Z,994.4
2023-04-12T19:55:57.654Z,994.4
2023-04-12T20:00:43.994Z,994.4
2023-04-12T20:05:50.530Z,994.5
2023-04-12T20:10:57.038Z,994.4
2023-04-12T20:16:41.482Z,994.4
2023-04-12T20:21:09.752Z,994.4
2023-04-12T20:26:16.173Z,994.4
2023-04-12T20:31:21.579Z,994.3
2023-04-12T20:36:28.888Z,994.3
2023-04-12T20:41:25.346Z,994.2
2023-04-12T20:46:41.810Z,994.1
2023-04-12T20:51:48.142Z,994.1
2023-04-12T20:56:44.528Z,994.1
2023-04-12T21:02:01.005Z,994.1
2023-04-12T21:07:07.304Z,994.1
2023-04-12T21:13:09.971Z,994.1
2023-04-12T21:17:20.207Z,994.0
2023-04-12T21:22:16.574Z,994.0
2023-04-12T21:27:32.982Z,993.9
2023-04-12T21:33:03.472Z,993.9
2023-04-12T21:37:45.748Z,993.8
2023-04-12T21:43:36.344Z,993.8
2023-04-12T21:48:26.396Z,993.8
2023-04-12T21:54:11.835Z,993.7
2023-04-12T21:58:14.104Z,993.7
2023-04-12T22:04:25.646Z,993.7
2023-04-12T22:08:27.881Z,993.7
2023-04-12T22:15:02.018Z,993.5
2023-04-12T22:19:04.296Z,993.6
2023-04-12T22:23:50.838Z,993.5
2023-04-12T22:29:21.240Z,993.5
2023-04-12T22:34:03.552Z,993.4
2023-04-12T22:39:09.964Z,993.3
2023-04-12T22:44:40.512Z,993.3
2023-04-12T22:49:23.017Z,993.2
2023-04-12T22:54:49.499Z,993.3
2023-04-12T22:59:35.786Z,993.3
2023-04-12T23:04:42.193Z,993.1
2023-04-12T23:09:48.578Z,993.1
2023-04-12T23:14:54.994Z,992.9
2023-04-12T23:20:01.351Z,992.8
2023-04-12T23:25:31.788Z,992.7
2023-04-12T23:30:14.139Z,992.7
2023-04-12T23:35:40.538Z,992.6
2023-04-12T23:40:26.897Z,992.5
2023-04-12T23:45:57.383Z,992.4
2023-04-12T23:50:41.800Z,992.4
2023-04-12T23:56:12.239Z,992.3
